sensor_id;sensor_type;location;lat;lon;timestamp;P1;durP1;ratioP1;P2;durP2;ratioP2
62457;SDS011;48509;52.122;5.250;2023-07-13T00:00:54;14.0;;;3.2;;
62457;SDS011;48509;52.122;5.250;2023-07-13T00:04:06;14.0;;;3.4;;
62457;SDS011;48509;52.122;5.250;2023-07-13T00:05:42;8.31;;;2.9;;
62457;SDS011;48509;52.122;5.250;2023-07-13T00:07:18;10.0;;;3.0;;
62457;SDS011;48509;52.122;5.250;2023-07-13T00:08:54;11.1;;;3.3;;
62457;SDS011;48509;52.122;5.250;2023-07-13T00:12:21;10.6;;;3.4;;
62457;SDS011;48509;52.122;5.250;2023-07-13T00:14:04;12.3;;;3.2;;
62457;SDS011;48509;52.122;5.250;2023-07-13T00:15:40;9.0;;;2.9;;
62457;SDS011;48509;52.122;5.250;2023-07-13T00:17:16;11.8;;;3.3;;
62457;SDS011;48509;52.122;5.250;2023-07-13T00:20:28;14.1;;;3.0;;
62457;SDS011;48509;52.122;5.250;2023-07-13T00:22:04;9.31;;;3.0;;
62457;SDS011;48509;52.122;5.250;2023-07-13T00:23:40;11.8;;;3.5;;
62457;SDS011;48509;52.122;5.250;2023-07-13T00:26:55;14.4;;;3.0;;
62457;SDS011;48509;52.122;5.250;2023-07-13T00:28:31;8.6;;;2.9;;
62457;SDS011;48509;52.122;5.250;2023-07-13T00:30:08;11.9;;;3.3;;
62457;SDS011;48509;52.122;5.250;2023-07-13T00:33:22;10.6;;;2.8;;
62457;SDS011;48509;52.122;5.250;2023-07-13T00:34:58;8.9;;;2.9;;
62457;SDS011;48509;52.122;5.250;2023-07-13T00:36:35;11.7;;;3.1;;
62457;SDS011;48509;52.122;5.250;2023-07-13T00:38:11;11.6;;;2.9;;
62457;SDS011;48509;52.122;5.250;2023-07-13T00:41:23;11.6;;;2.9;;
62457;SDS011;48509;52.122;5.250;2023-07-13T00:42:59;12.0;;;3.3;;
62457;SDS011;48509;52.122;5.250;2023-07-13T00:44:35;11.4;;;2.9;;
62457;SDS011;48509;52.122;5.250;2023-07-13T00:48:00;7.9;;;3.1;;
62457;SDS011;48509;52.122;5.250;2023-07-13T00:49:36;11.5;;;3.2;;
62457;SDS011;48509;52.122;5.250;2023-07-13T00:51:12;16.5;;;3.3;;
62457;SDS011;48509;52.122;5.250;2023-07-13T00:52:52;7.6;;;2.6;;
62457;SDS011;48509;52.122;5.250;2023-07-13T00:56:15;8.0;;;2.8;;
62457;SDS011;48509;52.122;5.250;2023-07-13T00:57:51;9.5;;;3.0;;
62457;SDS011;48509;52.122;5.250;2023-07-13T01:02:42;13.2;;;2.9;;
62457;SDS011;48509;52.122;5.250;2023-07-13T01:04:23;10.3;;;2.9;;
62457;SDS011;48509;52.122;5.250;2023-07-13T01:06:00;9.31;;;2.9;;
62457;SDS011;48509;52.122;5.250;2023-07-13T01:07:36;8.4;;;2.8;;
62457;SDS011;48509;52.122;5.250;2023-07-13T01:10:51;11.7;;;3.0;;
62457;SDS011;48509;52.122;5.250;2023-07-13T01:12:28;7.6;;;2.6;;
62457;SDS011;48509;52.122;5.250;2023-07-13T01:14:05;9.9;;;3.0;;
62457;SDS011;48509;52.122;5.250;2023-07-13T01:17:20;15.8;;;3.0;;
62457;SDS011;48509;52.122;5.250;2023-07-13T01:18:56;9.21;;;2.8;;
62457;SDS011;48509;52.122;5.250;2023-07-13T01:20:33;9.6;;;2.5;;
62457;SDS011;48509;52.122;5.250;2023-07-13T01:22:11;8.6;;;2.7;;
62457;SDS011;48509;52.122;5.250;2023-07-13T01:25:27;9.0;;;2.9;;
62457;SDS011;48509;52.122;5.250;2023-07-13T01:27:04;10.8;;;3.1;;
62457;SDS011;48509;52.122;5.250;2023-07-13T01:28:42;11.5;;;2.8;;
62457;SDS011;48509;52.122;5.250;2023-07-13T01:31:55;13.4;;;3.3;;
62457;SDS011;48509;52.122;5.250;2023-07-13T01:33:31;8.1;;;2.8;;
62457;SDS011;48509;52.122;5.250;2023-07-13T01:35:07;12.4;;;3.1;;
62457;SDS011;48509;52.122;5.250;2023-07-13T01:36:43;11.2;;;2.8;;
62457;SDS011;48509;52.122;5.250;2023-07-13T01:39:58;12.6;;;2.9;;
62457;SDS011;48509;52.122;5.250;2023-07-13T01:41:35;11.1;;;3.1;;
62457;SDS011;48509;52.122;5.250;2023-07-13T01:43:11;9.9;;;2.7;;
62457;SDS011;48509;52.122;5.250;2023-07-13T01:46:24;7.3;;;2.9;;
62457;SDS011;48509;52.122;5.250;2023-07-13T01:48:00;11.7;;;2.9;;
62457;SDS011;48509;52.122;5.250;2023-07-13T01:49:36;9.4;;;3.3;;
62457;SDS011;48509;52.122;5.250;2023-07-13T01:52:49;10.6;;;3.2;;
62457;SDS011;48509;52.122;5.250;2023-07-13T01:54:25;9.6;;;2.8;;
62457;SDS011;48509;52.122;5.250;2023-07-13T01:56:01;7.8;;;2.9;;
62457;SDS011;48509;52.122;5.250;2023-07-13T01:57:37;12.3;;;3.5;;
62457;SDS011;48509;52.122;5.250;2023-07-13T02:00:49;8.81;;;2.8;;
62457;SDS011;48509;52.122;5.250;2023-07-13T02:02:27;14.1;;;3.4;;
62457;SDS011;48509;52.122;5.250;2023-07-13T02:04:04;13.2;;;3.3;;
62457;SDS011;48509;52.122;5.250;2023-07-13T02:07:16;11.4;;;3.2;;
62457;SDS011;48509;52.122;5.250;2023-07-13T02:08:52;8.9;;;3.1;;
62457;SDS011;48509;52.122;5.250;2023-07-13T02:10:29;11.0;;;3.3;;
62457;SDS011;48509;52.122;5.250;2023-07-13T02:13:42;13.5;;;3.5;;
62457;SDS011;48509;52.122;5.250;2023-07-13T02:15:19;8.6;;;3.5;;
62457;SDS011;48509;52.122;5.250;2023-07-13T02:16:55;9.6;;;3.4;;
62457;SDS011;48509;52.122;5.250;2023-07-13T02:18:31;9.4;;;3.1;;
62457;SDS011;48509;52.122;5.250;2023-07-13T02:21:44;11.7;;;3.6;;
62457;SDS011;48509;52.122;5.250;2023-07-13T02:23:20;13.7;;;3.4;;
62457;SDS011;48509;52.122;5.250;2023-07-13T02:24:56;8.9;;;3.5;;
62457;SDS011;48509;52.122;5.250;2023-07-13T02:28:10;10.8;;;3.9;;
62457;SDS011;48509;52.122;5.250;2023-07-13T02:29:46;15.1;;;4.0;;
62457;SDS011;48509;52.122;5.250;2023-07-13T02:31:22;13.6;;;3.7;;
62457;SDS011;48509;52.122;5.250;2023-07-13T02:34:34;12.1;;;3.0;;
62457;SDS011;48509;52.122;5.250;2023-07-13T02:36:11;14.2;;;3.8;;
62457;SDS011;48509;52.122;5.250;2023-07-13T02:37:48;12.2;;;4.1;;
62457;SDS011;48509;52.122;5.250;2023-07-13T02:41:01;12.0;;;3.9;;
62457;SDS011;48509;52.122;5.250;2023-07-13T02:42:37;16.61;;;4.2;;
62457;SDS011;48509;52.122;5.250;2023-07-13T02:44:13;13.2;;;4.3;;
62457;SDS011;48509;52.122;5.250;2023-07-13T02:45:50;13.5;;;4.41;;
62457;SDS011;48509;52.122;5.250;2023-07-13T02:49:02;10.7;;;3.7;;
62457;SDS011;48509;52.122;5.250;2023-07-13T02:50:39;11.1;;;3.9;;
62457;SDS011;48509;52.122;5.250;2023-07-13T02:52:16;12.3;;;3.9;;
62457;SDS011;48509;52.122;5.250;2023-07-13T02:55:28;15.8;;;4.41;;
62457;SDS011;48509;52.122;5.250;2023-07-13T02:57:04;15.2;;;3.7;;
62457;SDS011;48509;52.122;5.250;2023-07-13T02:58:41;10.5;;;4.0;;
62457;SDS011;48509;52.122;5.250;2023-07-13T03:01:53;16.11;;;4.5;;
62457;SDS011;48509;52.122;5.250;2023-07-13T03:03:30;14.6;;;4.0;;
62457;SDS011;48509;52.122;5.250;2023-07-13T03:05:06;15.0;;;4.2;;
62457;SDS011;48509;52.122;5.250;2023-07-13T03:06:43;14.4;;;3.8;;
62457;SDS011;48509;52.122;5.250;2023-07-13T03:09:55;13.4;;;4.1;;
62457;SDS011;48509;52.122;5.250;2023-07-13T03:11:32;16.7;;;4.61;;
62457;SDS011;48509;52.122;5.250;2023-07-13T03:13:08;10.8;;;4.1;;
62457;SDS011;48509;52.122;5.250;2023-07-13T03:16:21;14.7;;;4.2;;
62457;SDS011;48509;52.122;5.250;2023-07-13T03:17:58;15.3;;;4.41;;
62457;SDS011;48509;52.122;5.250;2023-07-13T03:19:34;13.7;;;3.7;;
62457;SDS011;48509;52.122;5.250;2023-07-13T03:22:46;14.3;;;3.9;;
62457;SDS011;48509;52.122;5.250;2023-07-13T03:24:22;10.0;;;3.7;;
62457;SDS011;48509;52.122;5.250;2023-07-13T03:26:02;14.2;;;4.0;;
62457;SDS011;48509;52.122;5.250;2023-07-13T03:27:41;16.61;;;4.2;;
62457;SDS011;48509;52.122;5.250;2023-07-13T03:30:58;14.2;;;3.4;;
62457;SDS011;48509;52.122;5.250;2023-07-13T03:32:35;14.8;;;4.0;;
62457;SDS011;48509;52.122;5.250;2023-07-13T03:34:11;9.1;;;3.8;;
62457;SDS011;48509;52.122;5.250;2023-07-13T03:37:23;11.0;;;3.8;;
62457;SDS011;48509;52.122;5.250;2023-07-13T03:39:00;12.2;;;4.1;;
62457;SDS011;48509;52.122;5.250;2023-07-13T03:40:38;18.8;;;4.0;;
62457;SDS011;48509;52.122;5.250;2023-07-13T03:42:14;12.5;;;3.6;;
62457;SDS011;48509;52.122;5.250;2023-07-13T03:45:27;10.6;;;4.1;;
62457;SDS011;48509;52.122;5.250;2023-07-13T03:47:04;13.9;;;3.7;;
62457;SDS011;48509;52.122;5.250;2023-07-13T03:48:39;11.8;;;3.7;;
62457;SDS011;48509;52.122;5.250;2023-07-13T03:51:52;14.4;;;4.3;;
62457;SDS011;48509;52.122;5.250;2023-07-13T03:53:28;11.3;;;3.9;;
62457;SDS011;48509;52.122;5.250;2023-07-13T03:55:04;10.1;;;3.4;;
62457;SDS011;48509;52.122;5.250;2023-07-13T03:58:27;16.8;;;4.7;;
62457;SDS011;48509;52.122;5.250;2023-07-13T04:00:13;11.8;;;3.6;;
62457;SDS011;48509;52.122;5.250;2023-07-13T04:01:50;12.2;;;3.7;;
62457;SDS011;48509;52.122;5.250;2023-07-13T04:03:26;14.3;;;4.3;;
62457;SDS011;48509;52.122;5.250;2023-07-13T04:06:40;15.1;;;4.3;;
62457;SDS011;48509;52.122;5.250;2023-07-13T04:08:16;17.0;;;4.91;;
62457;SDS011;48509;52.122;5.250;2023-07-13T04:09:52;11.1;;;4.1;;
62457;SDS011;48509;52.122;5.250;2023-07-13T04:11:29;15.7;;;5.11;;
62457;SDS011;48509;52.122;5.250;2023-07-13T04:14:44;21.4;;;5.2;;
62457;SDS011;48509;52.122;5.250;2023-07-13T04:16:20;14.2;;;4.7;;
62457;SDS011;48509;52.122;5.250;2023-07-13T04:17:57;19.2;;;5.2;;
62457;SDS011;48509;52.122;5.250;2023-07-13T04:21:10;14.2;;;5.0;;
62457;SDS011;48509;52.122;5.250;2023-07-13T04:22:47;13.8;;;4.7;;
62457;SDS011;48509;52.122;5.250;2023-07-13T04:24:24;12.3;;;4.8;;
62457;SDS011;48509;52.122;5.250;2023-07-13T04:27:36;14.9;;;4.3;;
62457;SDS011;48509;52.122;5.250;2023-07-13T04:29:12;14.6;;;5.0;;
62457;SDS011;48509;52.122;5.250;2023-07-13T04:30:48;15.0;;;4.91;;
62457;SDS011;48509;52.122;5.250;2023-07-13T04:32:25;17.8;;;5.4;;
62457;SDS011;48509;52.122;5.250;2023-07-13T04:35:38;15.4;;;4.7;;
62457;SDS011;48509;52.122;5.250;2023-07-13T04:37:15;10.9;;;4.2;;
62457;SDS011;48509;52.122;5.250;2023-07-13T04:38:51;16.11;;;5.4;;
62457;SDS011;48509;52.122;5.250;2023-07-13T04:42:04;15.1;;;5.4;;
62457;SDS011;48509;52.122;5.250;2023-07-13T04:43:41;20.3;;;5.4;;
62457;SDS011;48509;52.122;5.250;2023-07-13T04:45:17;17.11;;;5.2;;
62457;SDS011;48509;52.122;5.250;2023-07-13T04:48:30;12.7;;;4.7;;
62457;SDS011;48509;52.122;5.250;2023-07-13T04:50:06;19.2;;;5.11;;
62457;SDS011;48509;52.122;5.250;2023-07-13T04:51:44;18.3;;;5.6;;
62457;SDS011;48509;52.122;5.250;2023-07-13T04:53:20;18.91;;;5.5;;
62457;SDS011;48509;52.122;5.250;2023-07-13T04:56:32;20.8;;;6.4;;
62457;SDS011;48509;52.122;5.250;2023-07-13T04:58:08;18.3;;;5.6;;
62457;SDS011;48509;52.122;5.250;2023-07-13T04:59:45;17.91;;;5.8;;
62457;SDS011;48509;52.122;5.250;2023-07-13T05:02:57;21.2;;;6.0;;
62457;SDS011;48509;52.122;5.250;2023-07-13T05:04:34;18.5;;;6.2;;
62457;SDS011;48509;52.122;5.250;2023-07-13T05:06:10;16.2;;;5.5;;
62457;SDS011;48509;52.122;5.250;2023-07-13T05:09:22;20.11;;;6.0;;
62457;SDS011;48509;52.122;5.250;2023-07-13T05:10:59;23.1;;;6.8;;
62457;SDS011;48509;52.122;5.250;2023-07-13T05:12:36;18.11;;;5.7;;
62457;SDS011;48509;52.122;5.250;2023-07-13T05:15:54;15.8;;;5.7;;
62457;SDS011;48509;52.122;5.250;2023-07-13T05:17:32;24.4;;;6.2;;
62457;SDS011;48509;52.122;5.250;2023-07-13T05:19:09;19.2;;;6.5;;
62457;SDS011;48509;52.122;5.250;2023-07-13T05:20:46;17.8;;;5.8;;
62457;SDS011;48509;52.122;5.250;2023-07-13T05:23:59;19.11;;;6.4;;
62457;SDS011;48509;52.122;5.250;2023-07-13T05:25:35;17.5;;;6.8;;
62457;SDS011;48509;52.122;5.250;2023-07-13T05:27:11;19.91;;;6.2;;
62457;SDS011;48509;52.122;5.250;2023-07-13T05:30:23;28.3;;;8.0;;
62457;SDS011;48509;52.122;5.250;2023-07-13T05:31:59;18.7;;;7.3;;
62457;SDS011;48509;52.122;5.250;2023-07-13T05:33:36;20.7;;;7.5;;
62457;SDS011;48509;52.122;5.250;2023-07-13T05:35:12;22.4;;;7.0;;
62457;SDS011;48509;52.122;5.250;2023-07-13T05:38:25;22.6;;;7.4;;
62457;SDS011;48509;52.122;5.250;2023-07-13T05:40:01;22.5;;;8.1;;
62457;SDS011;48509;52.122;5.250;2023-07-13T05:41:37;21.7;;;7.6;;
62457;SDS011;48509;52.122;5.250;2023-07-13T05:44:50;25.9;;;8.4;;
62457;SDS011;48509;52.122;5.250;2023-07-13T05:46:28;27.4;;;8.9;;
62457;SDS011;48509;52.122;5.250;2023-07-13T05:48:04;24.6;;;9.31;;
62457;SDS011;48509;52.122;5.250;2023-07-13T05:51:16;21.1;;;8.4;;
62457;SDS011;48509;52.122;5.250;2023-07-13T05:52:52;26.9;;;9.9;;
62457;SDS011;48509;52.122;5.250;2023-07-13T05:54:28;24.4;;;8.81;;
62457;SDS011;48509;52.122;5.250;2023-07-13T05:56:04;26.5;;;9.4;;
62457;SDS011;48509;52.122;5.250;2023-07-13T05:59:17;26.9;;;9.9;;
62457;SDS011;48509;52.122;5.250;2023-07-13T06:00:58;22.5;;;9.21;;
62457;SDS011;48509;52.122;5.250;2023-07-13T06:02:36;26.9;;;9.5;;
62457;SDS011;48509;52.122;5.250;2023-07-13T06:05:48;24.3;;;8.5;;
62457;SDS011;48509;52.122;5.250;2023-07-13T06:07:24;26.2;;;8.4;;
62457;SDS011;48509;52.122;5.250;2023-07-13T06:09:01;21.9;;;8.31;;
62457;SDS011;48509;52.122;5.250;2023-07-13T06:12:14;25.1;;;8.2;;
62457;SDS011;48509;52.122;5.250;2023-07-13T06:13:50;20.7;;;8.1;;
62457;SDS011;48509;52.122;5.250;2023-07-13T06:15:27;26.3;;;9.21;;
62457;SDS011;48509;52.122;5.250;2023-07-13T06:17:03;22.8;;;8.0;;
62457;SDS011;48509;52.122;5.250;2023-07-13T06:20:17;24.7;;;8.31;;
62457;SDS011;48509;52.122;5.250;2023-07-13T06:21:54;23.8;;;7.7;;
62457;SDS011;48509;52.122;5.250;2023-07-13T06:23:30;21.3;;;7.7;;
62457;SDS011;48509;52.122;5.250;2023-07-13T06:26:43;21.6;;;7.6;;
62457;SDS011;48509;52.122;5.250;2023-07-13T06:28:19;24.6;;;9.1;;
62457;SDS011;48509;52.122;5.250;2023-07-13T06:29:55;23.9;;;9.81;;
62457;SDS011;48509;52.122;5.250;2023-07-13T06:33:07;19.41;;;8.71;;
62457;SDS011;48509;52.122;5.250;2023-07-13T06:34:43;24.7;;;10.5;;
62457;SDS011;48509;52.122;5.250;2023-07-13T06:36:19;21.7;;;10.1;;
62457;SDS011;48509;52.122;5.250;2023-07-13T06:37:55;23.0;;;10.0;;
62457;SDS011;48509;52.122;5.250;2023-07-13T06:42:45;20.2;;;8.81;;
62457;SDS011;48509;52.122;5.250;2023-07-13T06:44:21;21.2;;;8.81;;
62457;SDS011;48509;52.122;5.250;2023-07-13T06:47:34;30.0;;;10.6;;
62457;SDS011;48509;52.122;5.250;2023-07-13T06:49:10;32.1;;;12.0;;
62457;SDS011;48509;52.122;5.250;2023-07-13T06:50:47;24.6;;;10.21;;
62457;SDS011;48509;52.122;5.250;2023-07-13T06:54:01;29.0;;;11.7;;
62457;SDS011;48509;52.122;5.250;2023-07-13T06:55:37;23.4;;;11.9;;
62457;SDS011;48509;52.122;5.250;2023-07-13T06:57:14;24.7;;;11.5;;
62457;SDS011;48509;52.122;5.250;2023-07-13T06:58:50;24.0;;;11.7;;
62457;SDS011;48509;52.122;5.250;2023-07-13T07:02:02;25.4;;;12.2;;
62457;SDS011;48509;52.122;5.250;2023-07-13T07:03:39;24.5;;;12.1;;
62457;SDS011;48509;52.122;5.250;2023-07-13T07:05:15;27.0;;;11.5;;
62457;SDS011;48509;52.122;5.250;2023-07-13T07:08:28;29.8;;;12.9;;
62457;SDS011;48509;52.122;5.250;2023-07-13T07:10:04;31.3;;;14.1;;
62457;SDS011;48509;52.122;5.250;2023-07-13T07:11:41;25.4;;;11.9;;
62457;SDS011;48509;52.122;5.250;2023-07-13T07:14:54;29.2;;;13.0;;
62457;SDS011;48509;52.122;5.250;2023-07-13T07:16:30;31.9;;;12.9;;
62457;SDS011;48509;52.122;5.250;2023-07-13T07:18:07;32.3;;;13.3;;
62457;SDS011;48509;52.122;5.250;2023-07-13T07:21:19;31.1;;;13.3;;
62457;SDS011;48509;52.122;5.250;2023-07-13T07:22:55;26.1;;;13.4;;
62457;SDS011;48509;52.122;5.250;2023-07-13T07:24:31;28.1;;;13.2;;
62457;SDS011;48509;52.122;5.250;2023-07-13T07:26:07;26.1;;;13.1;;
62457;SDS011;48509;52.122;5.250;2023-07-13T07:29:21;21.5;;;11.1;;
62457;SDS011;48509;52.122;5.250;2023-07-13T07:30:57;29.6;;;15.7;;
62457;SDS011;48509;52.122;5.250;2023-07-13T07:32:34;25.0;;;12.6;;
62457;SDS011;48509;52.122;5.250;2023-07-13T07:35:46;26.9;;;13.4;;
62457;SDS011;48509;52.122;5.250;2023-07-13T07:37:22;28.6;;;15.3;;
62457;SDS011;48509;52.122;5.250;2023-07-13T07:38:59;26.2;;;13.8;;
62457;SDS011;48509;52.122;5.250;2023-07-13T07:42:13;28.9;;;14.1;;
62457;SDS011;48509;52.122;5.250;2023-07-13T07:45:26;27.1;;;12.8;;
62457;SDS011;48509;52.122;5.250;2023-07-13T07:47:02;25.4;;;12.7;;
62457;SDS011;48509;52.122;5.250;2023-07-13T07:50:15;34.1;;;15.1;;
62457;SDS011;48509;52.122;5.250;2023-07-13T07:51:51;25.3;;;12.2;;
62457;SDS011;48509;52.122;5.250;2023-07-13T07:53:28;26.0;;;12.5;;
62457;SDS011;48509;52.122;5.250;2023-07-13T07:56:43;30.8;;;13.7;;
62457;SDS011;48509;52.122;5.250;2023-07-13T07:58:20;25.1;;;12.5;;
62457;SDS011;48509;52.122;5.250;2023-07-13T07:59:56;24.2;;;12.2;;
62457;SDS011;48509;52.122;5.250;2023-07-13T08:03:09;26.6;;;11.6;;
62457;SDS011;48509;52.122;5.250;2023-07-13T08:04:46;29.4;;;12.8;;
62457;SDS011;48509;52.122;5.250;2023-07-13T08:06:23;21.1;;;10.5;;
62457;SDS011;48509;52.122;5.250;2023-07-13T08:08:00;24.3;;;11.0;;
62457;SDS011;48509;52.122;5.250;2023-07-13T08:11:12;23.3;;;10.6;;
62457;SDS011;48509;52.122;5.250;2023-07-13T08:12:48;25.8;;;12.0;;
62457;SDS011;48509;52.122;5.250;2023-07-13T08:14:24;25.2;;;11.4;;
62457;SDS011;48509;52.122;5.250;2023-07-13T08:17:40;25.2;;;11.4;;
62457;SDS011;48509;52.122;5.250;2023-07-13T08:19:17;19.5;;;10.4;;
62457;SDS011;48509;52.122;5.250;2023-07-13T08:20:53;23.8;;;10.9;;
62457;SDS011;48509;52.122;5.250;2023-07-13T08:24:05;25.7;;;10.9;;
62457;SDS011;48509;52.122;5.250;2023-07-13T08:25:42;21.3;;;10.3;;
62457;SDS011;48509;52.122;5.250;2023-07-13T08:27:27;22.3;;;9.71;;
62457;SDS011;48509;52.122;5.250;2023-07-13T08:29:04;29.3;;;9.81;;
62457;SDS011;48509;52.122;5.250;2023-07-13T08:32:17;18.3;;;7.3;;
62457;SDS011;48509;52.122;5.250;2023-07-13T08:33:55;13.5;;;6.8;;
62457;SDS011;48509;52.122;5.250;2023-07-13T08:35:31;16.5;;;6.3;;
62457;SDS011;48509;52.122;5.250;2023-07-13T08:38:45;10.0;;;5.3;;
62457;SDS011;48509;52.122;5.250;2023-07-13T08:40:23;13.9;;;4.2;;
62457;SDS011;48509;52.122;5.250;2023-07-13T08:42:01;7.9;;;3.3;;
62457;SDS011;48509;52.122;5.250;2023-07-13T08:43:48;7.1;;;2.8;;
62457;SDS011;48509;52.122;5.250;2023-07-13T08:45:34;4.41;;;2.8;;
62457;SDS011;48509;52.122;5.250;2023-07-13T08:49:01;6.1;;;2.8;;
62457;SDS011;48509;52.122;5.250;2023-07-13T08:50:42;6.5;;;3.0;;
62457;SDS011;48509;52.122;5.250;2023-07-13T08:52:35;5.7;;;3.2;;
62457;SDS011;48509;52.122;5.250;2023-07-13T08:54:18;5.7;;;2.7;;
62457;SDS011;48509;52.122;5.250;2023-07-13T08:55:59;7.8;;;3.4;;
62457;SDS011;48509;52.122;5.250;2023-07-13T08:59:18;11.4;;;3.7;;
62457;SDS011;48509;52.122;5.250;2023-07-13T09:00:59;6.3;;;3.2;;
62457;SDS011;48509;52.122;5.250;2023-07-13T09:02:45;8.2;;;3.5;;
62457;SDS011;48509;52.122;5.250;2023-07-13T09:04:29;10.7;;;4.91;;
62457;SDS011;48509;52.122;5.250;2023-07-13T09:08:01;9.1;;;4.3;;
62457;SDS011;48509;52.122;5.250;2023-07-13T09:09:48;9.1;;;4.61;;
62457;SDS011;48509;52.122;5.250;2023-07-13T09:11:46;8.2;;;4.5;;
62457;SDS011;48509;52.122;5.250;2023-07-13T09:13:32;6.9;;;4.1;;
62457;SDS011;48509;52.122;5.250;2023-07-13T09:15:21;7.9;;;4.7;;
62457;SDS011;48509;52.122;5.250;2023-07-13T09:17:04;12.5;;;5.6;;
62457;SDS011;48509;52.122;5.250;2023-07-13T09:20:29;7.6;;;4.61;;
62457;SDS011;48509;52.122;5.250;2023-07-13T09:22:13;10.21;;;5.2;;
62457;SDS011;48509;52.122;5.250;2023-07-13T09:23:56;9.71;;;4.41;;
62457;SDS011;48509;52.122;5.250;2023-07-13T09:26:00;11.6;;;5.2;;
62457;SDS011;48509;52.122;5.250;2023-07-13T09:27:43;11.4;;;5.7;;
62457;SDS011;48509;52.122;5.250;2023-07-13T09:31:06;11.7;;;5.7;;
62457;SDS011;48509;52.122;5.250;2023-07-13T09:32:48;9.0;;;5.2;;
62457;SDS011;48509;52.122;5.250;2023-07-13T09:34:28;10.21;;;5.0;;
62457;SDS011;48509;52.122;5.250;2023-07-13T09:36:15;9.21;;;4.61;;
62457;SDS011;48509;52.122;5.250;2023-07-13T09:38:01;9.21;;;4.41;;
62457;SDS011;48509;52.122;5.250;2023-07-13T09:41:26;9.21;;;5.0;;
62457;SDS011;48509;52.122;5.250;2023-07-13T09:43:10;13.3;;;5.6;;
62457;SDS011;48509;52.122;5.250;2023-07-13T09:44:51;15.7;;;4.91;;
62457;SDS011;48509;52.122;5.250;2023-07-13T09:46:29;9.4;;;3.8;;
62457;SDS011;48509;52.122;5.250;2023-07-13T09:49:48;5.0;;;3.4;;
62457;SDS011;48509;52.122;5.250;2023-07-13T09:51:31;10.1;;;3.9;;
62457;SDS011;48509;52.122;5.250;2023-07-13T09:53:11;8.0;;;4.41;;
62457;SDS011;48509;52.122;5.250;2023-07-13T09:54:50;7.7;;;3.8;;
62457;SDS011;48509;52.122;5.250;2023-07-13T09:58:08;8.5;;;4.0;;
62457;SDS011;48509;52.122;5.250;2023-07-13T09:59:48;7.6;;;4.3;;
62457;SDS011;48509;52.122;5.250;2023-07-13T10:01:31;5.6;;;4.0;;
62457;SDS011;48509;52.122;5.250;2023-07-13T10:03:14;7.1;;;3.8;;
62457;SDS011;48509;52.122;5.250;2023-07-13T10:06:34;8.31;;;4.5;;
62457;SDS011;48509;52.122;5.250;2023-07-13T10:08:18;10.9;;;6.0;;
62457;SDS011;48509;52.122;5.250;2023-07-13T10:09:58;8.9;;;4.8;;
62457;SDS011;48509;52.122;5.250;2023-07-13T10:11:37;11.5;;;6.2;;
62457;SDS011;48509;52.122;5.250;2023-07-13T10:15:14;11.4;;;6.9;;
62457;SDS011;48509;52.122;5.250;2023-07-13T10:16:57;10.21;;;5.8;;
62457;SDS011;48509;52.122;5.250;2023-07-13T10:18:39;11.7;;;5.3;;
62457;SDS011;48509;52.122;5.250;2023-07-13T10:20:20;12.2;;;5.4;;
62457;SDS011;48509;52.122;5.250;2023-07-13T10:21:58;12.4;;;5.7;;
62457;SDS011;48509;52.122;5.250;2023-07-13T10:25:15;10.21;;;5.3;;
62457;SDS011;48509;52.122;5.250;2023-07-13T10:26:55;9.81;;;5.3;;
62457;SDS011;48509;52.122;5.250;2023-07-13T10:28:51;11.2;;;6.2;;
62457;SDS011;48509;52.122;5.250;2023-07-13T10:30:31;9.31;;;5.9;;
62457;SDS011;48509;52.122;5.250;2023-07-13T10:32:14;12.6;;;6.6;;
62457;SDS011;48509;52.122;5.250;2023-07-13T10:35:28;13.1;;;5.9;;
62457;SDS011;48509;52.122;5.250;2023-07-13T10:37:06;12.7;;;5.9;;
62457;SDS011;48509;52.122;5.250;2023-07-13T10:38:52;9.81;;;5.6;;
62457;SDS011;48509;52.122;5.250;2023-07-13T10:42:14;12.2;;;5.7;;
62457;SDS011;48509;52.122;5.250;2023-07-13T10:44:11;9.5;;;5.2;;
62457;SDS011;48509;52.122;5.250;2023-07-13T10:45:55;8.4;;;4.8;;
62457;SDS011;48509;52.122;5.250;2023-07-13T10:47:32;10.0;;;4.7;;
62457;SDS011;48509;52.122;5.250;2023-07-13T10:49:09;8.2;;;4.3;;
62457;SDS011;48509;52.122;5.250;2023-07-13T10:52:40;10.5;;;4.7;;
62457;SDS011;48509;52.122;5.250;2023-07-13T10:54:26;8.4;;;4.61;;
62457;SDS011;48509;52.122;5.250;2023-07-13T10:56:06;7.8;;;4.3;;
62457;SDS011;48509;52.122;5.250;2023-07-13T10:57:59;3.9;;;3.3;;
62457;SDS011;48509;52.122;5.250;2023-07-13T10:59:37;7.1;;;3.9;;
62457;SDS011;48509;52.122;5.250;2023-07-13T11:02:56;4.91;;;3.4;;
62457;SDS011;48509;52.122;5.250;2023-07-13T11:04:39;7.1;;;3.6;;
62457;SDS011;48509;52.122;5.250;2023-07-13T11:06:32;6.0;;;3.9;;
62457;SDS011;48509;52.122;5.250;2023-07-13T11:08:13;6.3;;;4.0;;
62457;SDS011;48509;52.122;5.250;2023-07-13T11:09:56;7.5;;;4.1;;
62457;SDS011;48509;52.122;5.250;2023-07-13T11:13:36;8.2;;;4.3;;
62457;SDS011;48509;52.122;5.250;2023-07-13T11:15:32;8.6;;;4.2;;
62457;SDS011;48509;52.122;5.250;2023-07-13T11:17:25;7.5;;;4.1;;
62457;SDS011;48509;52.122;5.250;2023-07-13T11:19:28;10.5;;;4.3;;
62457;SDS011;48509;52.122;5.250;2023-07-13T11:21:17;10.5;;;4.3;;
62457;SDS011;48509;52.122;5.250;2023-07-13T11:23:06;10.1;;;4.61;;
62457;SDS011;48509;52.122;5.250;2023-07-13T11:24:58;8.2;;;4.2;;
62457;SDS011;48509;52.122;5.250;2023-07-13T11:26:37;9.5;;;4.7;;
62457;SDS011;48509;52.122;5.250;2023-07-13T11:30:07;11.7;;;4.41;;
62457;SDS011;48509;52.122;5.250;2023-07-13T11:32:00;7.4;;;3.8;;
62457;SDS011;48509;52.122;5.250;2023-07-13T11:33:59;7.5;;;3.6;;
62457;SDS011;48509;52.122;5.250;2023-07-13T11:35:37;5.7;;;3.5;;
62457;SDS011;48509;52.122;5.250;2023-07-13T11:37:19;8.6;;;3.7;;
62457;SDS011;48509;52.122;5.250;2023-07-13T11:40:41;7.3;;;3.9;;
62457;SDS011;48509;52.122;5.250;2023-07-13T11:42:20;8.81;;;3.9;;
62457;SDS011;48509;52.122;5.250;2023-07-13T11:44:02;8.31;;;4.3;;
62457;SDS011;48509;52.122;5.250;2023-07-13T11:45:43;8.71;;;4.1;;
62457;SDS011;48509;52.122;5.250;2023-07-13T11:48:58;7.6;;;4.41;;
62457;SDS011;48509;52.122;5.250;2023-07-13T11:50:35;8.6;;;3.7;;
62457;SDS011;48509;52.122;5.250;2023-07-13T11:52:11;8.6;;;3.7;;
62457;SDS011;48509;52.122;5.250;2023-07-13T11:53:50;9.21;;;4.61;;
62457;SDS011;48509;52.122;5.250;2023-07-13T11:57:06;7.6;;;4.2;;
62457;SDS011;48509;52.122;5.250;2023-07-13T11:59:03;10.5;;;4.91;;
62457;SDS011;48509;52.122;5.250;2023-07-13T12:00:43;9.4;;;4.61;;
62457;SDS011;48509;52.122;5.250;2023-07-13T12:02:22;10.6;;;4.7;;
62457;SDS011;48509;52.122;5.250;2023-07-13T12:05:56;8.31;;;4.5;;
62457;SDS011;48509;52.122;5.250;2023-07-13T12:07:35;8.4;;;4.3;;
62457;SDS011;48509;52.122;5.250;2023-07-13T12:09:13;10.7;;;4.41;;
62457;SDS011;48509;52.122;5.250;2023-07-13T12:10:56;8.71;;;4.3;;
62457;SDS011;48509;52.122;5.250;2023-07-13T12:12:40;10.4;;;4.5;;
62457;SDS011;48509;52.122;5.250;2023-07-13T12:16:00;7.0;;;3.9;;
62457;SDS011;48509;52.122;5.250;2023-07-13T12:17:36;7.7;;;4.0;;
62457;SDS011;48509;52.122;5.250;2023-07-13T12:19:15;6.1;;;3.9;;
62457;SDS011;48509;52.122;5.250;2023-07-13T12:22:34;8.6;;;4.2;;
62457;SDS011;48509;52.122;5.250;2023-07-13T12:24:13;7.9;;;3.7;;
62457;SDS011;48509;52.122;5.250;2023-07-13T12:25:52;7.2;;;3.8;;
62457;SDS011;48509;52.122;5.250;2023-07-13T12:27:28;7.3;;;4.1;;
62457;SDS011;48509;52.122;5.250;2023-07-13T12:30:43;8.2;;;4.2;;
62457;SDS011;48509;52.122;5.250;2023-07-13T12:32:25;9.9;;;3.6;;
62457;SDS011;48509;52.122;5.250;2023-07-13T12:34:03;6.7;;;3.4;;
62457;SDS011;48509;52.122;5.250;2023-07-13T12:35:45;10.6;;;4.3;;
62457;SDS011;48509;52.122;5.250;2023-07-13T12:39:04;10.6;;;3.6;;
62457;SDS011;48509;52.122;5.250;2023-07-13T12:40:49;10.3;;;3.7;;
62457;SDS011;48509;52.122;5.250;2023-07-13T12:42:27;7.2;;;3.1;;
62457;SDS011;48509;52.122;5.250;2023-07-13T12:44:09;11.2;;;3.7;;
62457;SDS011;48509;52.122;5.250;2023-07-13T12:47:39;8.6;;;3.7;;
62457;SDS011;48509;52.122;5.250;2023-07-13T12:49:16;5.6;;;3.4;;
62457;SDS011;48509;52.122;5.250;2023-07-13T12:51:00;7.7;;;3.5;;
62457;SDS011;48509;52.122;5.250;2023-07-13T12:52:37;11.1;;;3.5;;